Airfield :
LOGIN :

Register | Disclaimer

   EN    FR    IT 

 










Legend :    VFR   Marginal VFR   IFR   Intensive IFR   Very Intensive IFR
Visi :
Ceiling :
>= 8 km
>= 3000ft
5 to 8 km
1000 to 3000 ft
1500m to 5 km
500 to 1000 ft
800 to 1500m
200 to 500 ft
< 800m
< 200 ft
Symbols :   Thunderstorms  Fog  Heavy snow  Heavy precipitations  Wind > 20 kt
SIGMETs :     Misc.  Thunderstorms  Icing  Turbulence  Mountain Waves  Volcanic Ashes







- Airport Elevation : 268 ft
- IATA code : BFS
- Download approach charts


EGAA - Belfast Aldergrove

CURRENT METAR :
  • 191620Z 19007KT 9999 FEW028 16/11 Q1017

EXPIRED METARs :
  • 191550Z 18008KT 9999 FEW024 17/11 Q1017
  • 191520Z 19010KT 9999 FEW024 17/11 Q1017
  • 191450Z 18009KT 9999 FEW023 17/11 Q1017
  • 191420Z 19008KT 150V230 9999 FEW023 18/11 Q1018
  • 191350Z 18009KT 150V220 9999 FEW016 SCT037 17/11 Q1018

TAF TAF EGAA
Valid from the 19 at 12:00 until the 20 at 12:00 UTC


191054Z 1912/2012 20008KT 9999 BKN020
TEMPO 1919/2003 8000 -RA SCT008 BKN014
BECMG 2003/2006 8000 -RA BKN012
TEMPO 2003/2010 4000 RA BKN006
PROB30
TEMPO 2010/2012 3000 +RA SCT004 BKN006
No reported NOTAMs for that airfield.



MET'MAP, your aeronautical weather chart ! - Copyright ORBIFLY December 2007 - Disclaimer

ORBIFLY MET'MAP TEAM :

Programming & Development : Alexandra Zaïnal
Concept & Development : Baudouin d'Aumeries
Co-Development & Prog : Marc-Olivier Méhu
Technical & hardware support : Manuel Goepfert

Contact : metmap@orbifly.com




SOURCES & CREDITS :

   NOAA